KMTN/MTN METAR and TAF weather

Enter ICAO airport designator
Station Type Date Time Source
KMTN METAR 2021/06/24 01:54 UTC NOAA

KMTN 240154Z 00000KT 10SM CLR 18/12 A3030 RMK LAST


Station Type Date Time Source
KMTN Decoded METAR 2021/06/24 01:54 UTC NOAA

Baltimore / Martin, MD, United States (KMTN) 39-20N 076-25W
Jun 23, 2021 - 09:54 PM EDT / 2021.06.24 0154 UTC
Wind: Calm:0
Visibility: 10 mile(s):0
Sky conditions: clear
Temperature: 64 F (18 C)
Dew Point: 53 F (12 C)
Relative Humidity: 67%
Pressure (altimeter): 30.3 in. Hg (1026 hPa)
ob: KMTN 240154Z 00000KT 10SM CLR 18/12 A3030 RMK LAST
cycle: 2

Station Type Date Time Source
KMTN TAF 2021/06/24 06:45 UTC NOAA

TAF KMTN 240542Z 2406/2506 VRB03KT P6SM SCT250
FM241400 11007KT P6SM FEW250
FM250200 VRB03KT P6SM FEW250
AMD NOT SKED 2402/2412

Example: see airport list